Littleton, Massachusetts
Current Conditions -  °F | °C
As of 9:52 AM on Saturday 25 Oct 2014 (Local Time) from KFIT Reporting Station
Clear Clear  
Wind Chill: 55°   Ceiling: Unl
Heat Index: 55°   Visibility: 10mi
Dew Point: 40°   Wind: 12mph
Humidity: 57%   Direction: 300°WNW
Pressure: 29.75"   Gusts: NA
Location:  42.54°N, 71.51°W
Report Text: KFIT 251352Z AUTO 30010KT 10SM CLR 13/04 A2975 RMK AO2 SLP076 T01280044
Loading
Personal Weather Stations






























Interactive Weather Map
Tropical Storm Tracking
New forecast layout! Learn more

10-Day Weather Forecast

Advertisements
Track Severe Weather on mobile